| Date | Time | Temp. (oF) | Dew Point (oF) | Rel. Hum. (%) | Press. (in.) | Wind Dir. (deg.) | Wind Speed (mph) | Hourly Rainfall (i n.) |
|
|---|---|---|---|---|---|---|---|---|---|
| 1 | 11/10 | 24:00 | 54 | 45 | 74 | 30.11 | 130 | 0 | 0.00 |
| 2 | 11/09 | 23:00 | 54 | 45 | 74 | 30.11 | 130 | 0 | 0.00 |
| 3 | 11/09 | 22:00 | 54 | 45 | 72 | 30.12 | 130 | 0 | 0.00 |
| 4 | 11/09 | 21:00 | 55 | 44 | 68 | 30.13 | 130 | 0 | 0.00 |
| 5 | 11/09 | 20:00 | 56 | 44 | 65 | 30.13 | 150 | 0 | 0.00 |
| 6 | 11/09 | 19:00 | 57 | 44 | 63 | 30.13 | 230 | 1 | 0.00 |
| 7 | 11/09 | 18:00 | 58 | 43 | 59 | 30.14 | 170 | 1 | 0.00 |
| 8 | 11/09 | 17:00 | 60 | 43 | 55 | 30.15 | 210 | 4 | 0.00 |
| 9 | 11/09 | 16:00 | 65 | 48 | 55 | 30.17 | 290 | 4 | 0.00 |
| 10 | 11/09 | 15:00 | 65 | 48 | 55 | 30.17 | 290 | 2 | 0.00 |
| 11 | 11/09 | 14:00 | 63 | 45 | 52 | 30.19 | 270 | 1 | 0.00 |
| 12 | 11/09 | 13:00 | 61 | 42 | 51 | 30.20 | 270 | 2 | 0.00 |
| 13 | 11/09 | 12:00 | 58 | 39 | 51 | 30.22 | 110 | 4 | 0.00 |
| 14 | 11/09 | 11:00 | 54 | 37 | 54 | 30.25 | 110 | 6 | 0.00 |
| 15 | 11/09 | 10:00 | 49 | 36 | 61 | 30.26 | 110 | 1 | 0.00 |
| 16 | 11/09 | 09:00 | 43 | 34 | 73 | 30.26 | 110 | 2 | 0.00 |
| 17 | 11/09 | 08:00 | 39 | 33 | 81 | 30.26 | 360 | 0 | 0.00 |
| 18 | 11/09 | 07:00 | 37 | 31 | 80 | 30.26 | 360 | 0 | 0.00 |
| 19 | 11/09 | 06:00 | 35 | 29 | 81 | 30.26 | 360 | 0 | 0.00 |
| 20 | 11/09 | 05:00 | 33 | 27 | 81 | 30.27 | 360 | 0 | 0.00 |
| 21 | 11/09 | 04:00 | 32 | 26 | 81 | 30.26 | 360 | 0 | 0.00 |
| 22 | 11/09 | 03:00 | 33 | 27 | 81 | 30.27 | 360 | 0 | 0.00 |
| 23 | 11/09 | 02:00 | 34 | 28 | 80 | 30.29 | 360 | 0 | 0.00 |
| 24 | 11/09 | 01:00 | 34 | 27 | 77 | 30.29 | 360 | 0 | 0.00 |